createdAt,value
2017-12-30T00:00:25.239Z,5.50
2017-12-30T00:02:54.211Z,5.60
2017-12-30T00:05:21.657Z,5.60
2017-12-30T00:07:49.193Z,5.60
2017-12-30T00:10:17.083Z,5.60
2017-12-30T00:12:44.634Z,5.60
2017-12-30T00:15:13.506Z,5.60
2017-12-30T00:17:41.422Z,5.60
2017-12-30T00:20:08.895Z,5.60
2017-12-30T00:22:36.338Z,5.60
2017-12-30T00:25:04.176Z,5.70
2017-12-30T00:27:31.636Z,5.70
2017-12-30T00:29:59.621Z,5.70
2017-12-30T00:32:27.773Z,5.70
2017-12-30T00:34:55.233Z,5.70
2017-12-30T00:37:22.786Z,5.80
2017-12-30T00:39:50.346Z,5.80
2017-12-30T00:42:17.768Z,5.70
2017-12-30T00:44:46.000Z,5.80
2017-12-30T00:47:14.318Z,5.80
2017-12-30T00:49:42.514Z,5.80
2017-12-30T00:52:10.211Z,5.80
2017-12-30T00:54:37.917Z,5.80
2017-12-30T00:57:06.556Z,5.80
2017-12-30T00:59:34.090Z,5.80
2017-12-30T01:02:01.539Z,5.90
2017-12-30T01:04:29.970Z,5.80
2017-12-30T01:06:57.391Z,5.80
2017-12-30T01:09:24.836Z,5.80
2017-12-30T01:11:52.528Z,5.80
2017-12-30T01:14:20.728Z,5.90
2017-12-30T01:16:48.957Z,5.90
2017-12-30T01:19:16.950Z,5.90
2017-12-30T01:21:44.484Z,5.90
2017-12-30T01:24:11.933Z,5.90
2017-12-30T01:26:39.793Z,5.90
2017-12-30T01:29:07.891Z,5.90
2017-12-30T01:31:35.443Z,5.90
2017-12-30T01:34:02.887Z,5.90
2017-12-30T01:36:30.356Z,5.90
2017-12-30T01:38:58.140Z,5.90
2017-12-30T01:41:25.606Z,5.90
2017-12-30T01:43:53.093Z,5.90
2017-12-30T01:46:21.725Z,5.90
2017-12-30T01:49:01.682Z,5.90
2017-12-30T01:51:29.124Z,5.90
2017-12-30T01:53:56.592Z,5.90
2017-12-30T01:56:24.052Z,5.80
2017-12-30T01:58:51.501Z,5.80
2017-12-30T02:01:18.969Z,5.80
2017-12-30T02:03:46.417Z,5.80
2017-12-30T02:06:13.981Z,5.90
2017-12-30T02:08:41.504Z,5.90
2017-12-30T02:11:08.968Z,5.90
2017-12-30T02:13:36.520Z,5.90
2017-12-30T02:16:04.712Z,6.00
2017-12-30T02:18:32.687Z,6.00
2017-12-30T02:21:00.677Z,6.00
2017-12-30T02:23:28.151Z,6.00
2017-12-30T02:25:56.047Z,6.00
2017-12-30T02:28:23.510Z,6.00
2017-12-30T02:30:51.520Z,6.00
2017-12-30T02:33:19.684Z,6.00
2017-12-30T02:35:47.522Z,6.00
2017-12-30T02:38:14.977Z,6.00
2017-12-30T02:40:42.577Z,6.00
2017-12-30T02:43:10.024Z,6.00
2017-12-30T02:45:37.513Z,6.00
2017-12-30T02:48:06.063Z,6.00
2017-12-30T02:50:33.938Z,6.00
2017-12-30T02:53:01.458Z,6.00
2017-12-30T02:55:28.919Z,6.00
2017-12-30T02:57:56.474Z,6.00
2017-12-30T03:00:24.097Z,6.00
2017-12-30T03:02:52.405Z,6.00
2017-12-30T03:05:19.864Z,6.00
2017-12-30T03:07:47.551Z,6.00
2017-12-30T03:10:15.117Z,5.90
2017-12-30T03:12:42.984Z,5.90
2017-12-30T03:15:10.889Z,5.90
2017-12-30T03:17:39.106Z,5.90
2017-12-30T03:20:06.989Z,5.90
2017-12-30T03:22:34.953Z,5.90
2017-12-30T03:25:02.728Z,5.80
2017-12-30T03:27:30.184Z,5.80
2017-12-30T03:29:59.476Z,5.70
2017-12-30T03:32:27.206Z,5.80
2017-12-30T03:34:54.661Z,5.80
2017-12-30T03:37:22.876Z,5.70
2017-12-30T03:39:50.327Z,5.70
2017-12-30T03:42:17.827Z,5.70
2017-12-30T03:44:46.064Z,5.70
2017-12-30T03:47:14.120Z,5.60
2017-12-30T03:49:41.655Z,5.60
2017-12-30T03:52:09.120Z,5.60
2017-12-30T03:54:36.593Z,5.60
2017-12-30T03:57:04.058Z,5.50
2017-12-30T03:59:31.586Z,5.50
2017-12-30T04:01:59.012Z,5.40
2017-12-30T04:04:27.271Z,5.40
2017-12-30T04:06:55.490Z,5.40
2017-12-30T04:09:22.952Z,5.30
2017-12-30T04:11:50.661Z,5.30
2017-12-30T04:14:18.719Z,5.30
2017-12-30T04:16:46.175Z,5.40
2017-12-30T04:19:14.283Z,5.30
2017-12-30T04:21:41.756Z,5.30
2017-12-30T04:24:09.232Z,5.30
2017-12-30T04:26:37.087Z,5.30
2017-12-30T04:29:05.167Z,5.30
2017-12-30T04:31:32.849Z,5.30
2017-12-30T04:34:00.616Z,5.30
2017-12-30T04:36:28.064Z,5.30
2017-12-30T04:38:55.525Z,5.30
2017-12-30T04:41:23.068Z,5.40
2017-12-30T04:43:50.556Z,5.40
2017-12-30T04:46:18.217Z,5.40
2017-12-30T04:48:45.983Z,5.40
2017-12-30T04:51:14.132Z,5.40
2017-12-30T04:53:41.577Z,5.40
2017-12-30T04:56:09.017Z,5.40
2017-12-30T04:58:36.812Z,5.40
2017-12-30T05:01:04.255Z,5.40
2017-12-30T05:03:31.723Z,5.40
2017-12-30T05:05:59.252Z,5.40
2017-12-30T05:08:26.843Z,5.50
2017-12-30T05:10:54.299Z,5.50
2017-12-30T05:13:21.856Z,5.50
2017-12-30T05:15:49.620Z,5.50
2017-12-30T05:18:17.484Z,5.40
2017-12-30T05:20:45.360Z,5.40
2017-12-30T05:23:12.911Z,5.40
2017-12-30T05:25:40.773Z,5.40
2017-12-30T05:28:08.344Z,5.40
2017-12-30T05:30:36.108Z,5.30
2017-12-30T05:33:03.563Z,5.30
2017-12-30T05:35:31.067Z,5.30
2017-12-30T05:37:58.520Z,5.40
2017-12-30T05:40:25.984Z,5.40
2017-12-30T05:42:54.276Z,5.40
2017-12-30T05:45:21.736Z,5.40
2017-12-30T05:47:49.619Z,5.40
2017-12-30T05:50:17.501Z,5.40
2017-12-30T05:52:44.944Z,5.50
2017-12-30T05:55:12.406Z,5.50
2017-12-30T05:57:39.873Z,5.50
2017-12-30T06:00:07.316Z,5.40
2017-12-30T06:02:34.775Z,5.40
2017-12-30T06:05:02.746Z,5.40
2017-12-30T06:07:30.270Z,5.40
2017-12-30T06:09:57.697Z,5.40
2017-12-30T06:12:26.011Z,5.40
2017-12-30T06:14:53.704Z,5.40
2017-12-30T06:17:21.140Z,5.40
2017-12-30T06:19:49.193Z,5.40
2017-12-30T06:22:16.647Z,5.50
2017-12-30T06:24:44.440Z,5.50
2017-12-30T06:27:11.871Z,5.50
2017-12-30T06:29:39.549Z,5.50
2017-12-30T06:32:06.984Z,5.50
2017-12-30T06:34:34.463Z,5.50
2017-12-30T06:37:02.235Z,5.50
2017-12-30T06:39:29.695Z,5.50
2017-12-30T06:41:57.165Z,5.40
2017-12-30T06:44:24.719Z,5.40
2017-12-30T06:46:52.188Z,5.40
2017-12-30T06:49:20.031Z,5.40
2017-12-30T06:51:47.500Z,5.40
2017-12-30T06:54:14.940Z,5.40
2017-12-30T06:56:42.510Z,5.40
2017-12-30T06:59:10.244Z,5.40
2017-12-30T07:01:37.705Z,5.40
2017-12-30T07:04:05.146Z,5.40
2017-12-30T07:06:32.600Z,5.50
2017-12-30T07:09:00.034Z,5.50
2017-12-30T07:11:28.268Z,5.50
2017-12-30T07:13:55.744Z,5.50
2017-12-30T07:16:24.599Z,5.40
2017-12-30T07:18:52.068Z,5.40
2017-12-30T07:21:19.948Z,5.40
2017-12-30T07:23:48.113Z,5.40
2017-12-30T07:26:15.988Z,5.40
2017-12-30T07:28:43.630Z,5.30
2017-12-30T07:31:11.608Z,5.30
2017-12-30T07:33:39.129Z,5.20
2017-12-30T07:36:06.569Z,5.20
2017-12-30T07:38:34.042Z,5.20
2017-12-30T07:41:01.500Z,5.10
2017-12-30T07:43:28.939Z,5.20
2017-12-30T07:45:56.383Z,5.20
2017-12-30T07:48:24.512Z,5.20
2017-12-30T07:50:52.554Z,5.20
2017-12-30T07:53:21.372Z,5.30
2017-12-30T07:55:48.841Z,5.30
2017-12-30T07:58:16.314Z,5.30
2017-12-30T08:00:43.751Z,5.30
2017-12-30T08:03:11.304Z,5.30
2017-12-30T08:05:39.670Z,5.40
2017-12-30T08:08:07.110Z,5.40
2017-12-30T08:10:34.902Z,5.40
2017-12-30T08:13:02.766Z,5.40
2017-12-30T08:15:30.553Z,5.50
2017-12-30T08:17:58.797Z,5.50
2017-12-30T08:20:26.781Z,5.50
2017-12-30T08:22:54.278Z,5.50
2017-12-30T08:25:22.425Z,5.60
2017-12-30T08:27:50.684Z,5.60
2017-12-30T08:30:18.441Z,5.60
2017-12-30T08:32:45.903Z,5.60
2017-12-30T08:35:13.373Z,5.60
2017-12-30T08:37:41.220Z,5.60
2017-12-30T08:40:08.655Z,5.70
2017-12-30T08:42:36.201Z,5.70
2017-12-30T08:45:03.634Z,5.80
2017-12-30T08:47:32.312Z,5.80
2017-12-30T08:50:01.790Z,5.80
2017-12-30T08:52:29.772Z,5.80
2017-12-30T08:54:57.187Z,5.80
2017-12-30T08:57:24.653Z,5.70
2017-12-30T08:59:52.536Z,5.80
2017-12-30T09:02:20.050Z,5.80
2017-12-30T09:04:47.518Z,5.70
2017-12-30T09:07:14.988Z,5.70
2017-12-30T09:09:42.459Z,5.70
2017-12-30T09:12:09.934Z,5.70
2017-12-30T09:14:37.778Z,5.70
2017-12-30T09:17:05.238Z,5.70
2017-12-30T09:19:32.812Z,5.70
2017-12-30T09:22:00.661Z,5.80
2017-12-30T09:24:28.096Z,5.80
2017-12-30T09:26:56.193Z,5.80
2017-12-30T09:29:25.070Z,5.70
2017-12-30T09:31:52.518Z,5.80
2017-12-30T09:34:20.018Z,5.90
2017-12-30T09:36:48.582Z,5.80
2017-12-30T09:39:16.016Z,5.80
2017-12-30T09:41:43.860Z,5.90
2017-12-30T09:44:11.286Z,5.90
2017-12-30T09:46:39.520Z,5.90
2017-12-30T09:49:07.388Z,5.90
2017-12-30T09:51:34.947Z,5.90
2017-12-30T09:54:03.936Z,5.90
2017-12-30T09:56:31.406Z,5.90
2017-12-30T09:58:59.637Z,5.90
2017-12-30T10:01:27.217Z,5.90
2017-12-30T10:03:54.655Z,5.90
2017-12-30T10:06:22.272Z,5.90
2017-12-30T10:08:50.476Z,6.00
2017-12-30T10:11:17.961Z,6.00
2017-12-30T10:13:45.518Z,6.00
2017-12-30T10:16:13.419Z,6.00
2017-12-30T10:18:40.877Z,6.00
2017-12-30T10:21:08.600Z,6.00
2017-12-30T10:23:36.054Z,6.00
2017-12-30T10:26:03.844Z,6.00
2017-12-30T10:28:31.330Z,6.00
2017-12-30T10:31:00.153Z,6.00
2017-12-30T10:33:27.613Z,6.00
2017-12-30T10:35:55.445Z,6.10
2017-12-30T10:38:23.814Z,6.10
2017-12-30T10:40:51.653Z,6.10
2017-12-30T10:43:19.096Z,6.10
2017-12-30T10:45:46.628Z,6.10
2017-12-30T10:48:14.705Z,6.10
2017-12-30T10:50:42.236Z,6.20
2017-12-30T10:53:09.863Z,6.20
2017-12-30T10:55:37.301Z,6.20
2017-12-30T10:58:04.813Z,6.20
2017-12-30T11:00:38.892Z,6.30
2017-12-30T11:03:06.338Z,6.30
2017-12-30T11:05:34.027Z,6.30
2017-12-30T11:08:02.753Z,6.30
2017-12-30T11:10:30.714Z,6.30
2017-12-30T11:12:58.452Z,6.40
2017-12-30T11:15:27.634Z,6.50
2017-12-30T11:17:55.097Z,6.50
2017-12-30T11:20:23.125Z,6.50
2017-12-30T11:22:51.619Z,6.60
2017-12-30T11:25:21.153Z,6.70
2017-12-30T11:27:49.409Z,6.70
2017-12-30T11:30:17.579Z,6.70
2017-12-30T11:32:46.810Z,6.80
2017-12-30T11:35:14.300Z,6.90
2017-12-30T11:37:41.792Z,6.90
2017-12-30T11:40:11.067Z,7.00
2017-12-30T11:42:38.546Z,7.10
2017-12-30T11:45:06.039Z,7.10
2017-12-30T11:47:34.993Z,7.30
2017-12-30T11:50:03.224Z,7.30
2017-12-30T11:52:30.798Z,7.40
2017-12-30T11:54:58.322Z,7.40
2017-12-30T11:57:26.626Z,7.50
2017-12-30T11:59:54.390Z,7.50
2017-12-30T12:02:21.872Z,7.60
2017-12-30T12:04:49.482Z,7.70
2017-12-30T12:07:17.896Z,7.80
2017-12-30T12:09:45.465Z,7.80
2017-12-30T12:12:12.900Z,7.90
2017-12-30T12:14:40.903Z,8.00
2017-12-30T12:17:08.380Z,8.00
2017-12-30T12:19:36.699Z,8.20
2017-12-30T12:22:04.889Z,8.20
2017-12-30T12:24:33.259Z,8.20
2017-12-30T12:27:00.877Z,8.30
2017-12-30T12:29:29.980Z,8.40
2017-12-30T12:31:58.232Z,8.50
2017-12-30T12:34:26.123Z,8.50
2017-12-30T12:36:54.469Z,8.70
2017-12-30T12:39:21.994Z,8.60
2017-12-30T12:41:49.463Z,8.70
2017-12-30T12:44:16.943Z,8.80
2017-12-30T12:46:44.400Z,8.90
2017-12-30T12:49:12.875Z,8.90
2017-12-30T12:51:40.409Z,9.00
2017-12-30T12:54:07.924Z,9.10
2017-12-30T12:56:36.172Z,9.30
2017-12-30T12:59:03.680Z,9.30
2017-12-30T13:01:32.184Z,9.40
2017-12-30T13:03:59.777Z,9.40
2017-12-30T13:06:27.282Z,9.50
2017-12-30T13:08:54.859Z,9.50
2017-12-30T13:11:22.402Z,9.70
2017-12-30T13:13:49.863Z,9.70
2017-12-30T13:16:18.020Z,9.80
2017-12-30T13:18:45.478Z,9.80
2017-12-30T13:21:13.869Z,9.90
2017-12-30T13:23:41.359Z,10.00
2017-12-30T13:26:09.394Z,10.00
2017-12-30T13:28:36.868Z,10.10
2017-12-30T13:31:04.822Z,10.10
2017-12-30T13:33:32.311Z,10.10
2017-12-30T13:35:59.852Z,10.20
2017-12-30T13:38:27.711Z,10.20
2017-12-30T13:40:56.386Z,10.30
2017-12-30T13:43:24.578Z,10.30
2017-12-30T13:45:52.030Z,10.30
2017-12-30T13:48:19.979Z,10.40
2017-12-30T13:50:47.961Z,10.50
2017-12-30T13:53:15.443Z,10.50
2017-12-30T13:55:42.884Z,10.60
2017-12-30T13:58:10.409Z,10.70
2017-12-30T14:00:37.896Z,10.80
2017-12-30T14:03:05.433Z,10.80
2017-12-30T14:05:33.015Z,10.80
2017-12-30T14:08:00.684Z,10.80
2017-12-30T14:10:28.195Z,10.90
2017-12-30T14:12:56.650Z,11.00
2017-12-30T14:15:24.728Z,11.00
2017-12-30T14:17:53.018Z,11.10
2017-12-30T14:20:21.233Z,11.10
2017-12-30T14:22:49.900Z,11.10
2017-12-30T14:25:17.942Z,11.10
2017-12-30T14:27:46.195Z,11.10
2017-12-30T14:30:13.998Z,11.10
2017-12-30T14:32:41.464Z,11.10
2017-12-30T14:35:08.965Z,11.20
2017-12-30T14:37:37.523Z,11.20
2017-12-30T14:40:05.093Z,11.20
2017-12-30T14:42:33.500Z,11.30
2017-12-30T14:45:02.244Z,11.30
2017-12-30T14:47:30.451Z,11.30
2017-12-30T14:49:58.548Z,11.30
2017-12-30T14:52:26.769Z,11.30
2017-12-30T14:54:54.366Z,11.30
2017-12-30T14:57:21.866Z,11.30
2017-12-30T14:59:49.345Z,11.40
2017-12-30T15:02:16.805Z,11.30
2017-12-30T15:04:44.713Z,11.40
2017-12-30T15:07:13.022Z,11.40
2017-12-30T15:09:40.989Z,11.40
2017-12-30T15:12:08.449Z,11.40
2017-12-30T15:14:36.417Z,11.40
2017-12-30T15:17:03.885Z,11.40
2017-12-30T15:19:31.350Z,11.40
2017-12-30T15:21:59.260Z,11.40
2017-12-30T15:24:26.758Z,11.40
2017-12-30T15:29:25.667Z,11.40
2017-12-30T15:31:53.134Z,11.50
2017-12-30T15:34:20.578Z,11.40
2017-12-30T15:36:48.093Z,11.40
2017-12-30T15:39:16.452Z,11.50
2017-12-30T15:41:44.057Z,11.40
2017-12-30T15:44:11.511Z,11.40
2017-12-30T15:46:39.222Z,11.40
2017-12-30T15:49:07.119Z,11.40
2017-12-30T15:51:35.351Z,11.40
2017-12-30T15:54:03.032Z,11.40
2017-12-30T15:56:31.041Z,11.40
2017-12-30T15:58:58.536Z,11.40
2017-12-30T16:01:26.024Z,11.40
2017-12-30T16:03:53.569Z,11.40
2017-12-30T16:06:21.022Z,11.50
2017-12-30T16:08:48.506Z,11.40
2017-12-30T16:11:16.722Z,11.40
2017-12-30T16:13:44.246Z,11.40
2017-12-30T16:16:12.906Z,11.50
2017-12-30T16:18:40.380Z,11.50
2017-12-30T16:21:07.887Z,11.50
2017-12-30T16:23:35.707Z,11.50
2017-12-30T16:26:04.253Z,11.50
2017-12-30T16:28:32.377Z,11.50
2017-12-30T16:31:00.118Z,11.50
2017-12-30T16:33:28.342Z,11.50
2017-12-30T16:35:55.911Z,11.50
2017-12-30T16:38:23.948Z,11.50
2017-12-30T16:40:51.486Z,11.50
2017-12-30T16:43:19.741Z,11.50
2017-12-30T16:45:47.203Z,11.50
2017-12-30T16:48:14.996Z,11.50
2017-12-30T16:50:42.510Z,11.50
2017-12-30T16:53:09.982Z,11.50
2017-12-30T16:55:38.213Z,11.50
2017-12-30T16:58:05.655Z,11.40
2017-12-30T17:00:33.199Z,11.50
2017-12-30T17:03:00.660Z,11.50
2017-12-30T17:05:28.138Z,11.40
2017-12-30T17:07:55.594Z,11.40
2017-12-30T17:10:23.053Z,11.30
2017-12-30T17:12:50.578Z,11.30
2017-12-30T17:15:19.135Z,11.20
2017-12-30T17:17:46.595Z,11.30
2017-12-30T17:20:14.077Z,11.20
2017-12-30T17:22:41.897Z,11.20
2017-12-30T17:25:10.113Z,11.20
2017-12-30T17:27:37.971Z,11.20
2017-12-30T17:30:06.844Z,11.20
2017-12-30T17:32:34.350Z,11.20
2017-12-30T17:35:01.834Z,11.20
2017-12-30T17:37:29.322Z,11.20
2017-12-30T17:39:56.780Z,11.30
2017-12-30T17:42:24.252Z,11.30
2017-12-30T17:44:52.462Z,11.30
2017-12-30T17:47:20.348Z,11.30
2017-12-30T17:49:48.220Z,11.30
2017-12-30T17:52:16.003Z,11.30
2017-12-30T17:54:43.482Z,11.30
2017-12-30T17:57:11.769Z,11.30
2017-12-30T17:59:39.247Z,11.30
2017-12-30T18:02:06.793Z,11.30
2017-12-30T18:04:34.232Z,11.30
2017-12-30T18:07:01.756Z,11.30
2017-12-30T18:09:29.227Z,11.30
2017-12-30T18:11:57.474Z,11.30
2017-12-30T18:14:25.808Z,11.30
2017-12-30T18:16:53.284Z,11.30
2017-12-30T18:19:20.744Z,11.30
2017-12-30T18:21:48.425Z,11.30
2017-12-30T18:24:16.238Z,11.30
2017-12-30T18:26:44.897Z,11.30
2017-12-30T18:29:12.936Z,11.30
2017-12-30T18:31:40.444Z,11.30
2017-12-30T18:34:08.978Z,11.40
2017-12-30T18:36:36.791Z,11.30
2017-12-30T18:39:05.047Z,11.30
2017-12-30T18:41:33.439Z,11.40
2017-12-30T18:44:01.678Z,11.40
2017-12-30T18:46:29.521Z,11.30
2017-12-30T18:48:57.391Z,11.40
2017-12-30T18:51:24.912Z,11.40
2017-12-30T18:53:53.137Z,11.50
2017-12-30T18:56:20.646Z,11.40
2017-12-30T18:58:48.882Z,11.50
2017-12-30T19:01:16.453Z,11.50
2017-12-30T19:03:43.965Z,11.50
2017-12-30T19:06:11.432Z,11.60
2017-12-30T19:08:38.918Z,11.60
2017-12-30T19:11:06.372Z,11.60
2017-12-30T19:13:33.869Z,11.60
2017-12-30T19:16:02.442Z,11.70
2017-12-30T19:18:30.725Z,11.80
2017-12-30T19:20:59.180Z,11.80
2017-12-30T19:23:27.404Z,11.80
2017-12-30T19:25:56.084Z,11.80
2017-12-30T19:28:23.608Z,11.90
2017-12-30T19:30:52.539Z,11.90
2017-12-30T19:33:20.091Z,11.90
2017-12-30T19:35:48.061Z,11.90
2017-12-30T19:38:15.600Z,11.90
2017-12-30T19:40:43.938Z,11.90
2017-12-30T19:43:11.607Z,11.90
2017-12-30T19:45:39.566Z,12.00
2017-12-30T19:48:07.466Z,12.00
2017-12-30T19:50:35.869Z,12.00
2017-12-30T19:53:03.555Z,12.00
2017-12-30T19:55:31.225Z,12.00
2017-12-30T19:57:59.161Z,12.00
2017-12-30T20:00:26.688Z,12.00
2017-12-30T20:02:56.668Z,12.00
2017-12-30T20:05:25.151Z,12.10
2017-12-30T20:07:53.804Z,12.00
2017-12-30T20:10:21.357Z,12.10
2017-12-30T20:12:49.941Z,12.10
2017-12-30T20:15:19.578Z,12.10
2017-12-30T20:17:47.092Z,12.10
2017-12-30T20:20:14.632Z,12.10
2017-12-30T20:22:43.856Z,12.10
2017-12-30T20:25:12.706Z,12.10
2017-12-30T20:27:40.178Z,12.10
2017-12-30T20:30:09.715Z,12.10
2017-12-30T20:32:38.645Z,12.10
2017-12-30T20:35:06.570Z,12.10
2017-12-30T20:37:34.491Z,12.10
2017-12-30T20:40:02.917Z,12.10
2017-12-30T20:42:30.468Z,12.10
2017-12-30T20:44:58.077Z,12.10
2017-12-30T20:47:25.954Z,12.10
2017-12-30T20:49:54.486Z,12.10
2017-12-30T20:52:22.933Z,12.10
2017-12-30T20:54:51.176Z,12.00
2017-12-30T20:57:18.685Z,12.00
2017-12-30T20:59:47.177Z,12.00
2017-12-30T21:02:15.629Z,12.00
2017-12-30T21:04:43.869Z,12.00
2017-12-30T21:07:11.937Z,12.00
2017-12-30T21:09:39.411Z,12.00
2017-12-30T21:12:07.676Z,12.00
2017-12-30T21:14:35.756Z,12.00
2017-12-30T21:17:03.640Z,12.00
2017-12-30T21:19:31.903Z,12.00
2017-12-30T21:21:59.364Z,12.00
2017-12-30T21:24:27.920Z,12.00
2017-12-30T21:26:55.785Z,11.90
2017-12-30T21:29:25.050Z,12.00
2017-12-30T21:31:54.146Z,11.90
2017-12-30T21:34:22.589Z,12.00
2017-12-30T21:36:50.859Z,11.90
2017-12-30T21:39:19.995Z,11.90
2017-12-30T21:41:48.385Z,11.90
2017-12-30T21:44:15.882Z,11.90
2017-12-30T21:46:43.902Z,11.90
2017-12-30T21:49:12.880Z,11.90
2017-12-30T21:51:41.372Z,11.90
2017-12-30T21:54:08.892Z,11.90
2017-12-30T21:56:37.225Z,11.90
2017-12-30T21:59:04.763Z,11.90
2017-12-30T22:01:32.304Z,11.90
2017-12-30T22:04:00.507Z,11.90
2017-12-30T22:06:28.241Z,11.80
2017-12-30T22:08:56.081Z,11.90
2017-12-30T22:11:24.448Z,11.90
2017-12-30T22:13:51.911Z,11.80
2017-12-30T22:16:19.735Z,11.90
2017-12-30T22:18:47.216Z,11.90
2017-12-30T22:21:14.696Z,11.90
2017-12-30T22:23:43.078Z,11.90
2017-12-30T22:26:11.656Z,11.90
2017-12-30T22:28:39.140Z,11.90
2017-12-30T22:31:07.095Z,11.90
2017-12-30T22:33:34.620Z,11.90
2017-12-30T22:36:02.078Z,11.90
2017-12-30T22:38:29.530Z,11.90
2017-12-30T22:40:57.058Z,11.90
2017-12-30T22:43:24.509Z,11.90
2017-12-30T22:45:52.152Z,11.90
2017-12-30T22:48:21.213Z,11.90
2017-12-30T22:50:48.673Z,11.80
2017-12-30T22:53:16.746Z,11.90
2017-12-30T22:55:44.293Z,11.90
2017-12-30T22:58:11.828Z,11.90
2017-12-30T23:00:54.165Z,11.90
2017-12-30T23:03:21.643Z,11.90
2017-12-30T23:05:49.858Z,11.90
2017-12-30T23:08:17.341Z,11.90
2017-12-30T23:10:45.433Z,11.90
2017-12-30T23:13:12.875Z,11.90
2017-12-30T23:15:40.809Z,11.90
2017-12-30T23:18:08.276Z,11.90
2017-12-30T23:20:35.854Z,11.90
2017-12-30T23:23:04.379Z,11.90
2017-12-30T23:25:33.060Z,11.90
2017-12-30T23:28:00.531Z,11.90
2017-12-30T23:30:28.347Z,11.90
2017-12-30T23:32:56.021Z,11.90
2017-12-30T23:35:24.252Z,11.90
2017-12-30T23:37:51.980Z,11.90
2017-12-30T23:40:19.433Z,11.90
2017-12-30T23:42:47.603Z,11.90
2017-12-30T23:45:15.841Z,11.90
2017-12-30T23:47:43.626Z,11.90
2017-12-30T23:50:11.574Z,11.90
2017-12-30T23:52:39.332Z,11.90
2017-12-30T23:55:06.823Z,11.90
2017-12-30T23:57:35.072Z,11.90
